默认 日期 大小 文件数 浏览量 最新下载 xml
hendrix磁力链接相关资源由用户搜索指令自动获取,结果来源于网络,本站不存储任何资料,亦不承担任何责任,请于24小时内删除,搜索到5560个磁力,显示前4000条数据,用时4ms。
    ... , "jimi-liverarities.jpg": 457040, "Jimi Hendrix - Live Rarities.txt": 3108}
创建时间: 2018-11-06 23:54:16 大小:8.45 GB 文件数量:24 热度:10 最近下载:2025-01-06 08:09:01
    {"07 Stop.mp3": 13282091, "04 Changes.mp3": 14602851, "05 Izabella.mp3": 8842332, "02 Lover Man.mp3": 7802661, "08 Ezy Rider.mp3": 14282074, "06 Machine Gun.mp3": 21442765, "10 Earth Blues.mp3": 15882866, "01 Power Of Soul.mp3": 13441988, "09 Bleeding ...
创建时间: 2018-11-07 00:09:23 大小:163.14 MB 文件数量:11 热度:21 最近下载:2025-09-23 04:41:02
    {"artwork": {"cover.jpg": 118264}, "info.txt": 935, "10 - Fire.flac": 86533308, "16 - Hey Joe.flac": 177088393, "06 - Love Man.flac": 112570479, "09 - Izabella.flac": 134621182, "05 - Red House.flac": 123145150, "07 - Foxy Lady.flac": 115789921, "13 - ...
创建时间: 2018-11-07 00:21:59 大小:2.02 GB 文件数量:18 热度:11 最近下载:2024-12-23 22:55:01
    {"cover.jpg": 2345497, "Cornerstones.cue": 1724, "Jimi Hendrix- Cornerstones .flac": 912295157}
创建时间: 2018-11-07 00:34:32 大小:872.27 MB 文件数量:3 热度:10 最近下载:2025-01-17 16:02:02
    {"Art": {"Southeby tray .jpg": 246362, "southeby pgs2,7.jpg": 239537, "southeby pgs6,3.jpg": 422820, "southeby pgs 4,5.jpg": 263303, "southeby pgs 8,1.jpg": 248682}, "info.txt": 1765, "14 - EXP.flac": 10248243, "MD5_flacs.txt": 1104, "FLAC_Check.txt": 1346 ...
创建时间: 2018-11-07 01:40:47 大小:321.12 MB 文件数量:23 热度:17 最近下载:2025-06-08 03:39:01
    {"RARBG.txt": 30, "dpg.17.01.13.holly.hendrix.repeat.offender.trailer.mp4": 1180693249, "dpg.17.01.13.holly.hendrix.repeat.offender.trailer.nfo": 5226}
创建时间: 2018-11-07 02:37:38 大小:1.1 GB 文件数量:3 热度:39 最近下载:2025-08-02 20:31:01
    ... Yngstrom Trio - Tribute To Hendrix.log": 5884, "Clas Yngstrom ... Trio - Tribute To Hendrix.flac": 441667673, "Clas Yngstrom ... Trio - Tribute To Hendrix.flac.jpg": 186658, "Clas ... Yngstrom Trio - Tribute To Hendrix - Wav.cue": 1232, " ...
创建时间: 2018-11-07 02:40:00 大小:423.79 MB 文件数量:12 热度:7 最近下载:2024-12-27 01:58:01
    {"01 - EXP.flac": 39840045, "07 - If 6 Was 9.flac": 123756530, "06 - Little Wing.flac": 53254758, "13 - Bold As Love.flac": 96037516, "10 - She's So Fine.flac": 61356272, "11 - One Rainy Wish.flac": 82336897, "05 - Ain't No Telling.flac": 39952302, "02 - ...
创建时间: 2018-11-07 03:06:21 大小:832.12 MB 文件数量:13 热度:7 最近下载:2025-03-17 07:35:03
    {"RARBG.com.txt": 34, "michaelninn.14.04.18.jenny.hendrix.meet.nikki.sex.mp4": 949328946, "michaelninn.14.04.18.jenny.hendrix.meet.nikki.sex.nfo": 6985}
创建时间: 2018-11-07 03:11:49 大小:905.36 MB 文件数量:3 热度:21 最近下载:2025-08-08 22:54:02
    {"Covers": {"CD SCAN.jpg": 36556, "Back cover - 1 of 2.jpg": 3299648, "Back cover - 2 of 2.jpg": 4586680, "Front cover - 1 of 6.jpg": 6418207, "Front cover - 2 of 6.jpg": 3474829, "Front cover - 3 of 6.jpg": 1437600, "Front cover - 4 of 6.jpg": 3810879, " ...
创建时间: 2018-11-07 03:16:51 大小:333.35 MB 文件数量:25 热度:12 最近下载:2025-03-17 16:56:04
    {"RARBG.com.txt": 34, "p.15.12.21.holly.hendrix.mp4": 2747314870, "p.15.12.21.holly.hendrix.nfo": 5190}
创建时间: 2018-11-07 04:22:54 大小:2.56 GB 文件数量:3 热度:32 最近下载:2025-08-04 05:44:04
    {"Jimmy Hendrix - Band Of Gypsys.avi": 748951582, "Torrent_downloaded_from_Demonoid_-_www.demonoid.pw_.txt": 59}
创建时间: 2018-11-07 07:41:59 大小:714.26 MB 文件数量:2 热度:6 最近下载:2024-12-19 09:44:03
    {"SisLovesMe.Teen.Holly.Hendrix.Once.Upon.A.Time.In.Daddys.Room.XXX.mp4": 281338801}
创建时间: 2018-11-07 07:58:12 大小:268.31 MB 文件数量:1 热度:12 最近下载:2025-08-15 18:08:01
    ... ": 269237, "1 Holly Hendrix.mp4": 660234852, "2 Holly Hendrix.mp4": 745795053, "3 ... Holly Hendrix.mp4": 601863489, "4 ... Amara Romani, Holly Hendrix.mp4": 258856463, "5 Adriana Chechik ...
创建时间: 2018-11-07 08:29:35 大小:3.43 GB 文件数量:8 热度:12 最近下载:2025-02-24 21:55:03
    {"Torrent Downloaded From ProstyleX.com.nfo": 38, "EvilAngel - Holly Hendrix - Gaping Hollys Greasy Anal Decadence.mp4": 550397844}
创建时间: 2018-11-07 09:49:33 大小:524.9 MB 文件数量:2 热度:21 最近下载:2025-08-01 13:45:07
    {"Przeczytaj!!!!.txt": 6191, "UP BY D-E-V-I-L.gif": 101304, "Wiecej fajnych torrentow i warezow zapraszam.url": 113, "Jenny Hendrix - DP Princess [JulesJordan] (2013) [FullHD].mp4": 1402182835}
创建时间: 2018-11-07 10:13:59 大小:1.31 GB 文件数量:4 热度:33 最近下载:2025-03-19 18:58:02
    {"BDMV": {"JAR": {"00000": {"map.txt": 18, "main.0.aca": 1937, "main.1.png": 120}}, "BDJO": {"Shadowman.txt": 0}, "META": {"DL": {"bdmt_eng.xml": 552, "Berkeley_640_thumbnail.jpg": 203451, "Berkeley2o_416_thumbnail.jpg": 98159}}, "BACKUP": {"JAR": {"00000 ...
创建时间: 2018-11-07 10:25:49 大小:22.52 GB 文件数量:84 热度:23 最近下载:2025-09-20 11:36:02
    {"RARBG.txt": 30, "itc.e1303.holly.hendrix.4k.mp4": 8597019609, "itc.e1303.holly.hendrix.4k.nfo": 5185}
创建时间: 2018-11-07 11:30:14 大小:8.01 GB 文件数量:3 热度:37 最近下载:2025-09-26 17:55:02
    {"1969-01-08_2nd_Show.ffp": 650, "1969-01-08_2nd_Show_Artwork": {"1969-01-08_back.jpg": 938299, "1969-01-08_front.jpg": 1108530}, "1969-01-08_2nd_Show_info.txt": 582, "1969-01-08_2nd_Show_d1_t01.flac": 5845479, "1969-01-08_2nd_Show_d1_t02.flac": 65994070, ...
创建时间: 2018-11-07 12:20:18 大小:469.78 MB 文件数量:14 热度:10 最近下载:2025-08-01 22:22:10
    {"RARBG.txt": 30, "tiny4k.18.05.31.holly.hendrix.big.dick.tea.party.4k.mp4": 5612462753, "tiny4k.18.05.31.holly.hendrix.big.dick.tea.party.4k.nfo": 5199}
创建时间: 2018-11-07 18:23:35 大小:5.23 GB 文件数量:3 热度:62 最近下载:2025-09-07 13:54:07